Date,TemperatureHighF,TemperatureAvgF,TemperatureLowF,DewpointHighF,DewpointAvgF,DewpointLowF,HumidityHigh,HumidityAvg,HumidityLow,PressureMaxIn,PressureMinIn,WindSpeedMaxMPH,WindSpeedAvgMPH,GustSpeedMaxMPH,PrecipitationSumIn
2013-1-1,54,48,42,43,37,32,93,69,49,30.27,30.19,11,2,16,0.00
2013-1-2,56,48,40,42,37,32,86,66,44,30.23,30.12,10,1,10,0.00
2013-1-3,53,47,41,42,40,36,89,76,63,30.26,30.16,10,2,12,0.00
2013-1-4,55,49,45,41,40,38,82,71,56,30.28,30.17,10,2,11,0.00
2013-1-5,54,48,41,48,44,38,96,89,76,30.25,30.05,10,0,13,0.32
2013-1-6,53,48,42,48,44,41,97,87,70,30.19,30.04,12,2,13,0.04
2013-1-7,57,48,42,49,45,40,98,90,70,30.26,30.14,5,0,8,0.00
2013-1-8,57,50,45,49,46,43,96,87,69,30.24,30.12,7,1,7,0.00
2013-1-9,54,49,46,50,44,36,95,82,67,30.15,29.99,17,2,18,0.00
2013-1-10,53,46,41,37,35,31,81,65,48,30.19,30.07,12,2,12,0.00
2013-1-11,52,46,40,42,37,30,85,69,52,30.25,30.12,15,3,15,0.00
2013-1-12,51,44,37,39,33,23,94,69,36,30.25,30.14,9,1,9,0.00
2013-1-13,51,42,34,36,29,18,84,63,34,30.27,30.17,15,1,15,0.00
2013-1-14,52,44,39,35,24,17,83,46,28,30.40,30.22,13,2,15,0.00
2013-1-15,55,44,37,38,34,29,90,70,38,30.48,30.38,9,1,9,0.00
2013-1-16,56,47,41,41,37,35,84,70,53,30.43,30.24,7,1,9,0.00
2013-1-17,61,51,42,42,39,36,85,66,46,30.25,30.14,9,2,10,0.00
2013-1-18,63,53,44,41,38,33,75,58,37,30.22,30.12,11,1,11,0.00
2013-1-19,62,51,42,42,38,34,80,62,37,30.24,30.14,9,1,10,0.00
2013-1-20,63,51,42,40,36,31,79,59,34,30.22,30.12,7,1,8,0.00
2013-1-21,63,52,43,44,39,35,75,62,41,30.17,30.06,13,2,13,0.00
2013-1-22,58,53,48,44,42,40,76,67,54,30.10,29.99,12,1,12,0.00
2013-1-23,54,51,50,49,46,44,93,82,72,30.08,29.94,6,1,9,0.15
2013-1-24,58,53,50,52,50,48,93,89,78,30.18,30.06,7,0,8,0.00
2013-1-25,64,56,52,54,52,50,95,85,69,30.18,30.03,7,1,9,0.00
2013-1-26,56,52,48,50,46,41,96,80,64,30.08,29.99,18,4,22,0.00
2013-1-27,56,49,42,43,39,36,81,69,52,30.17,30.06,13,2,15,0.00
2013-1-28,59,50,42,45,41,36,85,73,51,30.29,30.15,12,2,14,0.00
2013-1-29,58,49,43,47,43,40,93,80,57,30.35,30.26,10,1,14,0.00
2013-1-30,62,50,43,50,45,42,96,84,58,30.33,30.25,7,1,9,0.00
2013-1-31,63,52,44,49,46,42,94,79,55,30.28,30.16,8,1,9,0.00
2013-2-1,65,54,44,48,46,42,95,78,53,30.22,30.10,8,1,9,0.00
2013-2-2,58,51,46,50,47,44,94,88,73,30.29,30.21,10,2,11,0.00
2013-2-3,56,50,45,48,45,41,94,82,64,30.25,30.14,10,1,13,0.00
2013-2-4,54,48,44,48,46,42,95,91,81,30.17,30.06,9,1,11,0.00
2013-2-5,55,50,44,49,45,42,95,85,75,30.15,30.07,15,3,18,0.00
2013-2-6,57,48,41,48,44,39,95,85,58,30.19,30.12,15,2,17,0.00
2013-2-7,55,49,42,48,44,40,95,84,64,30.17,29.99,11,2,15,0.27
2013-2-8,54,47,41,44,40,32,96,77,49,30.02,29.94,15,2,15,0.09
2013-2-9,58,48,40,42,35,25,86,62,28,30.09,29.99,8,1,9,0.00
2013-2-10,60,47,40,47,41,34,95,79,39,30.12,30.02,10,1,12,0.00
2013-2-11,65,51,42,48,40,28,95,71,27,30.23,30.06,12,2,13,0.00
2013-2-12,59,49,42,47,45,40,97,86,51,30.36,30.23,12,1,12,0.00
2013-2-13,56,49,42,49,46,41,97,90,74,30.35,30.22,10,2,10,0.00
2013-2-14,68,53,47,49,46,44,97,79,43,30.24,30.15,7,1,7,0.00
2013-2-15,70,57,45,46,43,40,94,63,38,30.26,30.19,7,1,10,0.00
2013-2-16,67,56,49,51,46,43,92,73,48,30.22,30.05,9,2,13,0.00
2013-2-17,57,50,43,48,45,41,96,85,62,30.05,29.97,12,2,14,0.00
2013-2-18,53,49,47,45,42,38,92,77,66,30.04,29.96,17,-7,19,0.00
2013-2-19,50,46,40,45,39,33,91,79,60,29.97,29.75,16,3,20,0.24
2013-2-20,57,47,37,44,39,33,90,74,53,30.06,29.85,13,2,15,0.00
2013-2-21,58,49,41,44,40,34,87,72,43,30.17,30.05,19,2,19,0.00
2013-2-22,60,49,42,47,44,39,96,82,52,30.26,30.17,18,3,21,0.00
2013-2-23,58,52,46,48,40,34,95,66,46,30.26,30.16,17,3,19,0.00
2013-2-24,61,52,47,44,36,26,89,57,27,30.26,30.17,16,3,16,0.00
2013-2-25,59,50,42,49,44,41,96,81,59,30.27,30.17,12,2,16,0.00
2013-2-26,62,50,42,44,40,29,95,72,29,30.22,30.14,14,2,15,0.00
2013-2-27,61,50,42,50,45,40,95,81,49,30.36,30.20,16,1,16,0.00
2013-2-28,60,52,47,52,49,45,96,89,75,30.45,30.36,12,1,14,0.00
2013-3-1,70,54,44,54,48,43,98,84,50,30.43,30.23,8,1,12,0.00
2013-3-2,66,55,48,52,49,47,95,83,59,30.24,30.07,12,1,14,0.00
2013-3-3,56,51,49,50,48,45,93,88,79,30.10,30.04,17,4,18,0.00
2013-3-4,55,49,46,46,44,42,91,84,69,30.16,30.06,15,3,18,0.00
2013-3-5,57,51,43,47,43,40,92,75,60,30.07,29.83,20,3,24,0.11
2013-3-6,56,51,44,49,45,41,92,79,59,30.07,29.84,18,3,24,0.06
2013-3-7,56,49,43,46,44,40,93,83,58,30.00,29.86,9,2,11,0.03
2013-3-8,55,50,44,47,44,42,94,82,71,30.04,29.83,21,4,23,0.00
2013-3-9,62,51,42,49,44,40,94,78,54,30.31,30.05,14,2,16,0.00
2013-3-10,63,52,43,50,46,42,96,83,48,30.35,30.26,11,2,14,0.00
2013-3-11,66,52,44,49,46,43,97,83,52,30.27,30.11,16,2,16,0.00
2013-3-12,62,52,47,52,48,46,96,89,66,30.17,30.07,11,2,16,0.00
2013-3-13,74,54,46,54,49,46,98,85,50,30.16,30.06,11,2,16,0.00
2013-3-14,58,51,47,52,48,46,97,89,77,30.18,30.09,12,2,14,0.00
2013-3-15,63,53,46,52,49,44,97,87,65,30.14,30.04,12,2,14,0.01
2013-3-16,61,53,48,51,48,46,96,84,67,30.13,30.03,21,3,23,0.00
2013-3-17,62,53,47,48,45,42,88,76,50,30.16,30.05,18,3,20,0.00
2013-3-18,62,52,45,49,46,42,93,82,57,30.13,30.04,15,2,19,0.00
2013-3-19,62,52,47,51,47,43,93,83,62,30.14,30.06,12,1,13,0.07
2013-3-20,60,53,50,54,50,46,97,90,72,30.14,30.06,11,2,11,0.15
2013-3-21,59,51,42,48,44,40,93,78,60,30.14,30.02,15,2,17,0.00
2013-3-22,63,52,43,46,42,28,95,70,28,30.13,30.03,13,2,17,0.00
2013-3-23,66,52,43,46,42,27,94,72,26,30.14,30.06,14,2,15,0.00
2013-3-24,62,52,45,49,46,43,94,82,59,30.10,29.98,19,3,19,0.00
2013-3-25,54,50,46,46,45,43,91,83,70,30.04,29.94,17,4,19,0.00
2013-3-26,59,52,48,48,46,44,90,81,66,30.01,29.95,15,3,15,0.00
2013-3-27,60,54,49,53,50,47,97,90,76,30.02,29.95,9,2,10,0.01
2013-3-28,62,56,52,56,53,50,97,89,73,30.09,30.00,13,2,15,0.01
2013-3-29,72,55,49,55,51,48,97,87,53,30.09,30.02,17,2,17,0.00
2013-3-30,66,56,52,54,52,50,96,88,60,30.08,29.98,15,3,17,0.10
2013-3-31,65,58,52,56,54,51,96,86,66,30.07,30.00,11,1,13,0.14
2013-4-1,62,56,52,55,53,50,96,89,75,30.16,30.05,11,-2,15,0.61
2013-4-2,59,53,50,53,50,48,96,90,78,30.20,30.10,14,2,18,0.01
2013-4-3,67,53,49,54,50,48,96,88,60,30.15,30.01,17,2,20,0.00
2013-4-4,65,56,50,57,54,49,96,91,76,30.13,29.99,13,2,17,0.51
2013-4-5,62,56,52,56,54,51,97,91,74,30.20,30.12,14,3,14,0.02
2013-4-6,62,55,53,56,53,50,97,91,81,30.21,30.14,16,3,18,0.02
2013-4-7,61,56,52,56,52,48,95,87,75,30.18,29.86,27,4,33,0.06
2013-4-8,64,55,48,47,42,32,83,63,33,30.03,29.81,25,5,27,0.00
2013-4-9,75,61,50,49,42,34,77,52,28,30.11,30.03,14,2,20,0.00
2013-4-10,74,60,52,54,50,45,90,71,47,30.18,30.05,16,2,21,0.00
2013-4-11,68,55,50,50,48,46,91,78,47,30.08,29.85,20,3,21,0.00
2013-4-12,61,52,47,50,47,44,93,83,67,29.93,29.84,14,2,17,0.00
2013-4-13,61,53,48,50,46,43,90,76,63,29.91,29.83,22,3,22,0.00
2013-4-14,60,52,46,46,43,40,93,72,51,29.95,29.87,20,4,24,0.00
2013-4-15,57,50,45,47,41,37,95,72,53,29.97,29.87,25,4,31,0.00
2013-4-16,60,52,43,45,41,34,81,65,48,30.17,29.97,17,3,19,0.00
2013-4-17,66,58,50,45,39,29,83,51,26,30.28,30.16,16,4,17,0.00
2013-4-18,70,56,47,49,45,38,89,71,34,30.27,30.19,13,2,15,0.00
2013-4-19,65,56,48,52,48,46,92,77,58,30.24,30.06,14,2,15,0.00
2013-4-20,69,56,50,51,48,44,88,75,44,30.12,30.00,13,2,15,0.00
2013-4-21,73,58,48,53,48,45,92,73,42,30.05,29.94,13,2,14,0.00
2013-4-22,81,61,50,54,50,45,92,69,30,29.97,29.86,13,2,15,0.00
2013-4-23,70,56,49,50,45,30,93,71,25,29.96,29.87,21,3,22,0.00
2013-4-24,58,52,48,50,48,46,93,85,74,29.96,29.85,16,4,20,0.00
2013-4-25,60,55,52,52,50,47,91,84,71,30.15,29.96,13,3,16,0.00
2013-4-26,58,53,50,50,48,47,90,83,73,30.25,30.14,17,4,18,0.00
2013-4-27,58,52,49,51,48,46,93,88,74,30.25,30.09,15,3,16,0.00
2013-4-28,65,57,50,53,50,47,90,78,61,30.10,29.89,12,3,14,0.00
2013-4-29,73,61,52,56,51,48,90,73,51,29.91,29.77,10,2,14,0.00
2013-4-30,67,58,51,51,48,38,87,70,51,29.87,29.80,13,2,18,0.00
2013-5-1,71,63,54,51,43,24,87,53,20,30.09,29.85,15,4,16,0.00
2013-5-2,88,66,50,54,44,29,91,52,12,30.15,30.08,10,1,11,0.00
2013-5-3,78,62,53,54,48,38,88,64,35,30.09,29.81,16,2,17,0.00
2013-5-4,69,58,52,54,51,49,92,81,53,29.81,29.59,23,4,26,0.00
2013-5-5,67,60,51,52,50,47,89,70,57,29.82,29.62,13,2,22,0.00
2013-5-6,69,61,55,54,52,48,88,74,51,29.98,29.82,15,3,17,0.00
2013-5-7,66,59,54,56,54,51,94,83,70,30.06,29.96,13,4,15,0.00
2013-5-8,60,55,53,52,51,49,94,86,75,30.15,30.06,17,4,20,0.00
2013-5-9,59,55,52,52,50,48,89,83,74,30.19,30.12,22,6,26,0.00
2013-5-10,58,54,51,52,50,49,94,89,79,30.21,30.13,25,4,25,0.00
2013-5-11,64,54,50,55,51,49,96,89,71,30.17,30.08,17,3,17,0.00
2013-5-12,64,57,52,56,53,50,95,87,72,30.17,30.04,16,3,19,0.00
2013-5-13,63,56,52,56,52,50,96,86,71,30.11,29.96,17,4,19,0.00
2013-5-14,63,57,52,52,50,48,92,78,65,30.01,29.94,19,3,23,0.00
2013-5-15,60,55,51,52,50,47,91,82,70,30.06,30.00,21,6,25,0.00
2013-5-16,63,56,53,56,53,51,96,90,77,30.05,29.98,21,6,21,0.00
2013-5-17,61,55,51,53,50,49,92,83,70,30.09,29.99,24,7,25,0.00
2013-5-18,65,57,49,53,50,46,93,78,61,30.15,30.08,20,4,22,0.00
2013-5-19,71,59,50,54,50,47,91,74,46,30.13,29.99,16,2,21,0.00
2013-5-20,77,60,50,58,51,48,92,75,41,30.01,29.95,16,3,20,0.00
2013-5-21,62,56,51,51,48,41,90,74,64,30.02,29.92,22,6,27,0.00
2013-5-22,59,54,48,45,39,30,80,57,39,30.04,29.91,21,4,26,0.00
2013-5-23,62,54,49,48,45,42,83,71,56,30.02,29.93,18,4,22,0.00
2013-5-24,62,54,48,49,46,44,88,76,60,30.02,29.95,21,4,23,0.00
2013-5-25,60,53,48,50,48,44,92,81,65,30.06,29.97,24,5,26,0.00
2013-5-26,61,56,52,54,52,49,96,87,74,30.16,30.06,22,7,22,0.00
2013-5-27,59,56,52,56,53,50,95,91,84,30.15,30.00,20,4,20,0.09
2013-5-28,62,57,53,57,54,52,97,91,81,30.02,29.94,18,4,20,0.01
2013-5-29,64,58,53,55,52,49,92,82,64,29.99,29.91,22,5,24,0.00
2013-5-30,64,57,50,51,49,47,93,76,61,30.01,29.94,16,3,19,0.00
2013-5-31,71,59,49,53,49,46,90,72,50,30.03,29.92,15,2,18,0.00
2013-6-1,71,60,51,53,50,47,88,71,52,29.95,29.78,12,2,13,0.00
2013-6-2,63,56,51,53,50,49,92,81,67,29.80,29.71,16,3,20,0.00
2013-6-3,63,56,52,53,51,49,92,84,70,29.88,29.74,17,4,23,0.00
2013-6-4,62,57,54,54,52,51,90,85,75,29.99,29.87,18,4,20,0.00
2013-6-5,61,56,52,53,51,50,92,85,73,30.02,29.95,19,4,19,0.00
2013-6-6,62,55,52,53,51,50,94,87,73,29.98,29.88,16,4,20,0.00
2013-6-7,63,57,52,56,53,50,94,87,74,29.92,29.74,16,4,19,0.00
2013-6-8,61,56,52,55,53,50,95,88,80,29.83,29.74,25,6,30,0.00
2013-6-9,60,57,56,56,55,54,95,92,84,29.91,29.82,19,1,19,0.00
2013-6-10,67,59,56,55,54,53,95,83,64,29.97,29.81,17,3,20,0.00
2013-6-11,65,58,54,55,53,50,91,82,67,30.01,29.91,16,3,16,0.00
2013-6-12,65,58,51,54,51,48,92,78,62,30.01,29.92,22,3,22,0.00
2013-6-13,69,58,50,53,50,47,90,75,57,30.12,30.01,18,2,18,0.00
2013-6-14,74,59,52,56,51,48,89,76,51,30.01,29.86,19,3,22,0.00
2013-6-15,58,53,51,52,50,49,92,88,79,30.02,29.86,20,4,23,0.00
2013-6-16,63,56,51,54,51,49,92,83,71,30.11,30.00,23,5,23,0.00
2013-6-17,64,57,51,57,53,50,95,87,76,30.11,30.04,22,6,24,0.00
2013-6-18,61,56,54,54,53,51,96,88,77,30.06,30.00,27,8,27,0.00
2013-6-19,64,58,52,53,50,48,91,76,60,30.08,30.01,22,5,25,0.00
2013-6-20,66,58,52,52,50,48,90,75,60,30.03,29.96,19,4,23,0.00
2013-6-21,68,58,50,53,51,48,93,78,57,30.00,29.93,24,3,24,0.00
2013-6-22,67,59,51,55,52,48,95,79,60,29.96,29.86,20,3,21,0.00
2013-6-23,62,57,54,61,56,52,97,95,91,29.91,29.84,17,4,21,0.04
2013-6-24,61,57,54,58,55,53,97,95,87,29.92,29.81,13,2,13,0.04
2013-6-25,72,64,58,65,61,57,98,92,77,30.00,29.89,11,1,11,0.28
2013-6-26,73,64,60,65,61,58,97,89,73,30.07,29.99,15,3,18,0.03
2013-6-27,73,63,56,62,58,56,97,84,65,30.11,30.02,12,2,13,0.00
2013-6-28,73,63,57,60,57,55,94,82,63,30.05,29.92,17,3,18,0.00
2013-6-29,75,65,58,59,57,54,88,75,57,29.94,29.82,18,3,18,0.00
2013-6-30,68,62,57,58,56,54,91,82,72,29.86,29.78,17,3,18,0.00
2013-7-1,70,61,56,59,56,54,95,84,61,29.87,29.81,16,3,19,0.00
2013-7-2,69,60,56,59,56,54,95,89,72,29.94,29.84,26,4,26,0.00
2013-7-3,74,62,57,61,58,56,97,86,64,29.94,29.79,16,3,19,0.00
2013-7-4,69,63,57,60,56,52,94,79,65,29.81,29.70,18,4,19,0.00
2013-7-5,63,58,55,54,53,52,91,83,72,29.81,29.72,16,4,19,0.00
2013-7-6,63,57,54,55,53,51,90,85,73,29.83,29.77,18,4,23,0.00
2013-7-7,65,59,55,56,54,52,90,84,72,29.89,29.81,16,4,18,0.00
2013-7-8,65,59,54,56,54,52,95,85,72,29.99,29.88,15,3,18,0.00
2013-7-9,63,57,52,57,54,51,96,90,77,30.05,29.96,16,4,20,0.00
2013-7-10,64,56,54,56,54,52,96,90,76,30.00,29.93,20,4,23,0.00
2013-7-11,59,55,52,54,52,51,95,89,81,29.97,29.91,17,3,21,0.00
2013-7-12,62,57,54,55,53,51,91,86,77,29.97,29.91,17,4,22,0.00
2013-7-13,64,58,55,55,53,52,91,85,72,29.99,29.92,17,4,20,0.00
2013-7-14,60,56,53,54,53,51,95,89,80,30.03,29.93,14,4,19,0.00
2013-7-15,61,56,52,55,53,50,95,90,80,29.95,29.87,16,3,22,0.00
2013-7-16,64,58,54,58,55,51,95,88,74,30.04,29.88,14,2,14,0.01
2013-7-17,65,59,55,57,55,53,93,86,74,30.12,30.04,16,3,19,0.00
2013-7-18,62,57,54,56,54,52,95,90,79,30.09,29.97,18,4,20,0.00
2013-7-19,63,57,54,56,54,52,94,89,77,29.98,29.86,17,3,20,0.00
2013-7-20,62,56,53,55,52,51,95,90,77,29.88,29.78,20,3,21,0.00
2013-7-21,60,56,53,55,53,51,95,91,81,29.90,29.80,18,3,21,0.00
2013-7-22,63,58,54,58,56,53,96,92,82,29.99,29.89,17,4,17,0.00
2013-7-23,66,60,56,59,56,54,96,89,75,30.03,29.96,13,3,16,0.00
2013-7-24,66,59,55,58,56,53,97,89,74,30.02,29.93,14,3,17,0.00
2013-7-25,63,56,53,56,54,52,96,92,79,30.05,29.96,16,4,18,0.00
2013-7-26,62,57,53,58,54,52,97,92,83,30.12,30.04,18,4,18,0.00
2013-7-27,61,57,54,56,54,53,97,93,85,30.06,29.90,15,3,17,0.00
2013-7-28,59,56,54,55,54,52,96,92,85,29.91,29.85,15,3,20,0.00
2013-7-29,63,58,55,56,54,53,92,87,77,30.04,29.87,19,4,22,0.00
2013-7-30,63,58,54,56,54,52,94,88,78,30.13,30.04,13,3,18,0.00
2013-7-31,64,58,53,56,54,51,95,88,76,30.12,30.02,19,4,24,0.00
2013-8-1,64,58,55,57,54,53,93,86,74,30.09,29.97,20,4,25,0.00
2013-8-2,63,57,53,56,53,51,95,88,75,30.01,29.92,20,3,25,0.00
2013-8-3,62,56,53,55,53,51,96,90,79,30.01,29.94,20,3,21,0.00
2013-8-4,61,56,53,54,53,52,96,90,77,30.04,29.99,19,3,21,0.00
2013-8-5,61,56,53,55,53,51,95,91,80,30.06,29.97,18,3,19,0.00
2013-8-6,64,58,54,57,54,52,94,87,75,30.06,30.00,17,3,19,0.00
2013-8-7,67,60,56,58,56,54,95,87,72,30.13,30.05,13,2,15,0.01
2013-8-8,66,60,55,58,56,53,96,89,74,30.06,29.96,20,3,23,0.05
2013-8-9,65,58,55,58,55,53,96,90,78,30.01,29.94,18,3,18,0.02
2013-8-10,66,60,57,58,56,54,95,88,74,30.08,30.01,21,4,22,0.00
2013-8-11,61,57,55,57,55,54,96,93,83,30.05,29.96,14,3,17,0.00
2013-8-12,66,58,55,58,55,53,96,90,75,30.02,29.96,16,3,18,0.00
2013-8-13,70,61,57,59,56,53,92,84,66,30.00,29.92,18,3,20,0.00
2013-8-14,68,60,55,60,57,53,94,88,71,30.00,29.92,19,3,20,0.00
2013-8-15,71,63,59,64,61,58,97,91,79,29.99,29.92,18,3,20,0.00
2013-8-16,67,61,58,61,58,56,97,92,81,30.02,29.96,18,3,19,0.00
2013-8-17,68,61,57,61,57,55,94,88,73,30.01,29.88,18,3,22,0.00
2013-8-18,69,61,57,60,57,55,95,88,73,29.91,29.80,16,3,16,0.00
2013-8-19,66,60,56,59,57,55,96,91,79,29.92,29.81,19,4,22,0.00
2013-8-20,66,61,58,59,57,56,97,88,77,29.92,29.85,19,5,23,0.00
2013-8-21,67,61,58,58,56,55,90,83,71,29.96,29.88,18,3,18,0.00
2013-8-22,66,61,58,57,56,54,89,82,70,30.00,29.91,19,4,21,0.00
2013-8-23,63,59,56,57,56,54,92,88,81,29.95,29.82,15,3,16,0.00
2013-8-24,66,60,56,60,57,55,95,89,76,29.92,29.84,23,4,23,0.00
2013-8-25,71,64,60,64,61,58,97,90,78,29.96,29.90,13,2,16,0.00
2013-8-26,67,62,58,60,58,56,95,87,71,30.03,29.91,20,3,20,0.01
2013-8-27,68,60,56,61,57,54,97,91,77,29.92,29.84,17,3,19,0.00
2013-8-28,71,62,58,64,60,57,98,93,76,29.96,29.87,17,4,21,0.00
2013-8-29,70,64,60,63,61,59,97,91,78,30.08,29.96,17,3,19,0.00
2013-8-30,74,65,59,64,60,57,98,86,69,30.05,29.93,15,2,16,0.00
2013-8-31,68,60,56,61,58,55,97,91,78,30.00,29.91,15,3,19,0.00
2013-9-1,68,62,56,62,59,55,95,90,79,29.97,29.90,16,4,22,0.00
2013-9-2,73,65,61,64,62,60,97,89,73,29.98,29.89,21,4,21,0.00
2013-9-3,69,63,59,63,60,58,96,89,73,30.02,29.94,21,4,22,0.00
2013-9-4,68,63,59,62,60,57,95,89,78,30.05,29.96,21,5,21,0.00
2013-9-5,68,62,58,61,58,56,96,86,75,30.03,29.95,21,3,21,0.01
2013-9-6,80,67,54,61,55,51,95,70,40,30.00,29.83,16,2,17,0.00
2013-9-7,80,65,56,62,56,53,96,75,46,29.89,29.82,15,2,17,0.00
2013-9-8,66,59,55,60,57,54,97,91,79,29.89,29.78,16,3,18,0.00
2013-9-9,67,59,54,60,56,53,97,91,74,29.83,29.73,17,3,20,0.00
2013-9-10,68,62,58,61,59,57,98,90,76,29.91,29.75,17,3,21,0.01
2013-9-11,70,65,62,60,59,58,89,82,71,30.01,29.91,13,2,15,0.00
2013-9-12,68,62,58,61,60,57,96,91,77,30.00,29.91,18,3,22,0.00
2013-9-13,65,59,56,59,56,55,96,91,81,29.93,29.78,24,4,24,0.00
2013-9-14,65,59,56,59,56,54,95,90,80,29.84,29.75,22,5,25,0.00
2013-9-15,69,62,57,60,57,54,95,85,67,29.88,29.79,19,5,25,0.00
2013-9-16,68,62,58,60,58,56,96,88,68,29.92,29.80,19,4,22,0.00
2013-9-17,67,61,58,58,56,53,94,84,69,29.90,29.83,25,6,25,0.00
2013-9-18,74,61,53,59,53,50,93,77,48,29.93,29.83,14,2,18,0.00
2013-9-19,75,60,52,60,54,50,94,80,52,29.87,29.75,15,-2,15,0.00
2013-9-20,70,62,54,63,58,52,95,89,77,29.88,29.78,14,2,17,0.00
2013-9-21,66,62,58,61,59,55,96,90,81,29.92,29.81,16,2,16,0.64
2013-9-22,67,60,54,58,56,53,97,86,66,30.01,29.91,14,2,19,0.01
2013-9-23,77,63,55,62,57,52,93,83,52,30.04,29.94,15,2,18,0.00
2013-9-24,67,61,57,59,55,49,91,82,64,30.01,29.92,17,4,24,0.00
2013-9-25,65,60,55,53,50,47,87,72,61,29.95,29.84,18,4,23,0.00
2013-9-26,69,59,50,51,47,40,81,67,35,29.99,29.85,15,2,17,0.00
2013-9-27,74,61,53,53,46,38,86,61,28,30.11,29.99,16,2,16,0.00
2013-9-28,72,60,51,57,52,45,93,79,43,30.10,30.01,16,2,18,0.00
2013-9-29,72,62,55,63,59,54,98,89,72,30.12,30.07,12,2,14,0.00
2013-9-30,68,63,57,64,60,48,97,90,66,30.08,29.99,13,2,14,0.01
2013-10-1,68,60,53,54,52,49,93,77,56,30.03,29.93,11,2,13,0.00
2013-10-2,67,58,52,55,51,46,93,77,60,30.03,29.94,16,2,18,0.00
2013-10-3,70,61,51,49,44,34,79,58,30,30.09,29.96,18,2,22,0.00
2013-10-4,81,69,58,47,37,30,56,32,16,30.10,29.99,21,4,27,0.00
2013-10-5,83,66,54,46,38,30,67,39,15,30.20,30.10,6,1,7,0.00
2013-10-6,84,65,52,47,40,31,72,42,15,30.13,30.00,6,1,9,0.00
2013-10-7,74,61,53,51,46,37,86,59,35,30.00,29.88,13,2,15,0.00
2013-10-8,68,56,50,54,50,48,94,80,55,29.92,29.73,17,2,18,0.00
2013-10-9,65,56,50,51,48,45,92,75,51,29.78,29.64,14,2,14,0.00
2013-10-10,62,55,51,53,50,48,93,85,70,30.03,29.77,17,2,19,0.00
2013-10-11,58,53,50,51,49,48,94,87,74,30.11,30.00,13,-1,16,0.00
2013-10-12,59,54,48,52,50,47,95,87,75,30.03,29.91,14,2,17,0.00
2013-10-13,67,56,49,54,50,45,96,81,47,30.07,29.93,13,1,15,0.00
2013-10-14,76,59,49,54,47,42,97,70,32,30.13,30.01,8,1,8,0.01
2013-10-15,79,61,49,50,43,37,91,56,23,30.05,29.96,9,-10,9,0.00
2013-10-16,82,62,50,51,43,35,88,54,20,30.10,30.00,7,0,9,0.00
2013-10-17,78,60,51,52,44,35,91,59,24,30.09,29.98,9,1,11,0.00
2013-10-18,62,53,49,54,50,48,96,89,73,30.07,30.00,12,2,13,0.00
2013-10-19,71,55,47,55,50,46,98,86,54,30.09,30.01,13,2,13,0.01
2013-10-20,57,52,48,52,49,47,97,92,81,30.04,29.94,15,3,16,0.00
2013-10-21,57,52,50,52,50,49,97,93,82,30.03,29.94,12,3,16,0.00
2013-10-22,58,51,49,55,50,48,98,95,83,30.04,29.95,16,2,16,0.00
2013-10-23,58,51,48,53,49,47,98,94,82,30.00,29.93,14,2,16,0.00
2013-10-24,59,53,50,51,50,48,95,89,75,30.12,29.99,9,-5,12,0.00
2013-10-25,63,55,48,54,51,46,96,86,71,30.18,30.09,12,1,16,0.00
2013-10-26,68,54,48,56,51,47,97,89,58,30.16,30.03,12,2,14,0.01
2013-10-27,57,52,50,52,50,49,97,92,80,30.05,29.80,20,4,21,0.00
2013-10-29,60,55,50,52,49,48,93,81,65,30.07,29.99,12,-26,12,0.00
2013-10-30,62,53,47,54,49,46,97,86,62,30.17,30.06,9,1,12,0.00
2013-10-31,66,52,47,52,47,43,96,85,47,30.19,30.08,8,0,11,0.01
2013-11-1,72,58,49,52,49,46,95,74,43,30.15,30.01,8,-6,9,0.00
2013-11-2,61,54,50,55,50,46,96,88,78,30.04,29.91,15,2,17,0.00
2013-11-3,61,53,45,48,44,39,91,75,46,30.07,29.94,12,1,14,0.00
2013-11-4,66,54,43,46,42,35,90,66,36,30.09,29.94,13,1,14,0.00
2013-11-5,71,57,47,50,42,35,90,61,28,30.23,30.07,11,1,11,0.00
2013-11-6,68,58,50,48,46,42,90,64,44,30.27,30.16,6,1,10,0.00
2013-11-7,70,58,51,52,47,42,93,69,39,30.18,30.08,14,1,14,0.00
2013-11-8,67,55,48,56,50,47,97,85,60,30.10,29.97,8,1,10,0.00
2013-11-9,70,55,47,52,49,45,96,84,46,30.06,29.99,13,1,13,0.01
2013-11-10,62,55,50,53,51,47,96,87,71,30.14,30.04,11,1,12,0.00
2013-11-11,62,56,50,53,51,48,93,85,70,30.18,30.08,6,1,8,0.00
2013-11-12,68,59,54,54,52,50,93,79,58,30.28,30.16,5,0,6,0.00
2013-11-13,69,55,50,58,53,49,97,91,65,30.26,30.12,13,2,13,0.01
2013-11-14,58,54,52,54,51,47,97,91,78,30.13,29.89,14,2,18,0.00
2013-11-15,61,53,48,50,48,45,92,81,60,29.91,29.74,13,2,15,0.00
2013-11-16,62,53,45,52,48,43,94,85,54,29.94,29.78,15,2,18,0.00
2013-11-17,61,53,50,51,48,46,94,85,63,30.10,29.94,9,1,10,0.00
2013-11-18,58,52,46,50,48,44,96,86,73,30.17,30.10,9,1,10,0.01
2013-11-19,60,56,53,57,53,49,95,88,81,30.12,29.95,8,1,9,0.60
2013-11-20,59,56,52,58,54,50,97,95,91,29.95,29.84,13,2,14,1.04
2013-11-21,62,56,50,52,40,27,96,60,29,29.99,29.91,22,4,24,0.00
2013-11-22,69,61,55,41,30,22,57,31,19,30.03,29.91,20,3,21,0.00
2013-11-23,67,57,49,50,37,25,94,52,22,30.11,29.96,11,2,11,0.00
2013-11-24,60,51,46,49,46,43,96,84,58,30.26,30.10,5,0,6,0.00
2013-11-25,61,52,44,50,46,42,96,81,64,30.34,30.26,7,1,8,0.01
2013-11-26,61,54,49,48,45,43,86,72,55,30.28,30.04,9,1,10,0.00
2013-11-27,63,56,51,49,47,44,81,73,60,30.04,29.85,9,1,10,0.00
2013-11-28,68,55,48,49,45,42,90,71,43,30.08,29.87,7,0,8,0.00
2013-11-29,64,53,46,54,48,43,96,84,51,30.23,30.08,6,-10,7,0.00
2013-11-30,61,51,46,53,49,45,98,91,73,30.29,30.20,5,0,7,0.01
2013-12-1,65,53,46,52,48,44,98,85,52,30.35,30.23,6,0,7,0.01
2013-12-2,60,53,48,54,51,47,98,92,77,30.24,29.97,18,2,18,0.01
2013-12-3,55,51,47,54,40,29,97,66,47,29.97,29.86,20,3,20,0.00
2013-12-4,52,45,38,34,29,23,74,54,32,30.10,29.96,11,1,12,0.00
2013-12-5,50,42,34,35,29,18,88,63,29,30.17,30.09,9,1,10,0.00
2013-12-6,51,45,36,49,39,32,93,80,60,30.21,29.93,17,1,19,0.35
2013-12-7,50,45,38,47,32,27,93,63,41,30.27,29.94,14,3,17,0.00
2013-12-8,47,41,36,33,27,21,81,58,38,30.34,30.24,13,2,14,0.00
2013-12-9,51,42,32,34,25,17,77,55,27,30.43,30.33,13,2,15,0.00
2013-12-10,54,45,41,37,33,28,77,63,39,30.42,30.22,13,2,15,0.00
2013-12-11,57,48,40,39,36,30,79,64,38,30.26,30.18,12,2,12,0.00
2013-12-12,57,49,43,45,39,36,92,70,48,30.28,30.18,11,1,11,0.00
2013-12-13,56,47,40,47,43,38,97,87,55,30.35,30.24,6,0,6,0.00
2013-12-14,61,50,41,46,42,39,97,76,47,30.41,30.32,8,1,10,0.01
2013-12-15,58,52,47,44,42,39,79,69,55,30.37,30.24,9,1,10,0.00
2013-12-16,66,56,50,44,41,37,76,59,35,30.25,30.12,8,1,9,0.00
2013-12-17,62,54,48,45,42,40,76,64,53,30.19,30.04,10,2,12,0.00
2013-12-18,56,50,44,49,45,40,91,84,73,30.04,29.78,17,2,18,0.00
2013-12-19,59,51,43,45,39,27,87,65,36,29.95,29.74,19,2,19,0.00
2013-12-20,60,48,39,46,36,22,89,64,28,30.03,29.94,7,0,9,0.00
2013-12-21,59,49,43,51,46,41,96,88,71,30.10,29.98,10,0,12,0.00
2013-12-22,63,50,43,48,43,40,98,79,43,30.29,30.09,7,0,8,0.01
2013-12-23,61,51,43,45,43,40,93,74,52,30.40,30.29,5,0,8,0.00
2013-12-24,64,51,44,48,43,40,91,76,49,30.35,30.21,6,-3,7,0.00
2013-12-25,64,53,44,49,44,41,92,72,49,30.30,30.20,12,1,12,0.00
2013-12-26,63,52,44,46,41,38,88,68,44,30.27,30.17,8,1,8,0.00
2013-12-27,58,52,45,44,42,38,83,69,53,30.24,30.13,10,1,10,0.00
2013-12-28,62,49,42,44,40,36,89,73,38,30.16,30.04,6,0,8,0.00
2013-12-29,66,52,42,43,37,27,92,58,25,30.19,30.09,11,1,13,0.00
2013-12-30,61,52,47,49,43,39,93,73,47,30.27,30.18,7,-10,8,0.00
2013-12-31,58,48,42,47,44,41,97,86,55,30.29,30.17,4,0,6,0.01
2014-1-1,62,49,42,49,43,39,96,82,44,30.23,30.13,5,0,5,0.00
2014-1-2,62,53,44,44,41,39,91,64,44,30.19,30.06,8,1,10,0.00